N34549 KSYR-KBOS
Flight info
| Callsign | N34549 |
|---|---|
| Flight time | N/A |
| Altitude | 7000 |
| Route | SYR T608 REVER |
| Aircraft | BE58/L-SDFGRY/C |
Departure
| Time | 2026-04-29 23:30 |
|---|---|
| Airport | Syracuse Hancock International Airport (KSYR) |
Arrival
| Time | N/A |
|---|---|
| Airport | Boston Logan International Airport (KBOS) |
| Time | Latitude | Longitude | Altitude | Speed | Heading |
|---|---|---|---|---|---|
| 2026-04-29 22:52 | 43.10576 | -76.11456 | 417 ft | 0 kts | 298° |
| 2026-04-29 23:19 | 43.10577 | -76.11458 | 417 ft | 0 kts | 297° |
| 2026-04-29 23:19 | 43.10578 | -76.11460 | 417 ft | 3 kts | 309° |
| 2026-04-29 23:19 | 43.10589 | -76.11399 | 415 ft | 0 kts | 94° |
| 2026-04-29 23:21 | 43.10590 | -76.11375 | 414 ft | 10 kts | 82° |
| 2026-04-29 23:21 | 43.10646 | -76.11298 | 414 ft | 15 kts | 25° |
| 2026-04-29 23:22 | 43.10737 | -76.11342 | 416 ft | 14 kts | 283° |
| 2026-04-29 23:22 | 43.10731 | -76.11538 | 415 ft | 25 kts | 269° |
| 2026-04-29 23:22 | 43.10729 | -76.11631 | 415 ft | 12 kts | 268° |
| 2026-04-29 23:22 | 43.10724 | -76.11820 | 416 ft | 28 kts | 268° |
| 2026-04-29 23:23 | 43.10711 | -76.12023 | 418 ft | 16 kts | 244° |
| 2026-04-29 23:23 | 43.10675 | -76.12190 | 420 ft | 22 kts | 265° |
| 2026-04-29 23:23 | 43.10668 | -76.12436 | 422 ft | 27 kts | 266° |
| 2026-04-29 23:23 | 43.10673 | -76.12543 | 418 ft | 3 kts | 327° |
| 2026-04-29 23:24 | 43.10686 | -76.12546 | 424 ft | 0 kts | 356° |
| 2026-04-29 23:24 | 43.10689 | -76.12546 | 424 ft | 0 kts | 0° |
| 2026-04-29 23:28 | 43.10690 | -76.12546 | 424 ft | 2 kts | 2° |
| 2026-04-29 23:28 | 43.10756 | -76.12549 | 423 ft | 4 kts | 354° |
| 2026-04-29 23:28 | 43.10822 | -76.12524 | 423 ft | 9 kts | 79° |
| 2026-04-29 23:29 | 43.10824 | -76.12459 | 423 ft | 20 kts | 96° |
| 2026-04-29 23:29 | 43.10843 | -76.11942 | 414 ft | 94 kts | 87° |
| 2026-04-29 23:29 | 43.10897 | -76.10808 | 563 ft | 136 kts | 83° |
| 2026-04-29 23:29 | 43.11053 | -76.09463 | 956 ft | 152 kts | 78° |
| 2026-04-29 23:30 | 43.11318 | -76.08019 | 1376 ft | 162 kts | 75° |
| 2026-04-29 23:30 | 43.11527 | -76.06455 | 1759 ft | 172 kts | 81° |
| 2026-04-29 23:30 | 43.11712 | -76.04819 | 2178 ft | 179 kts | 79° |
| 2026-04-29 23:30 | 43.11967 | -76.03063 | 2412 ft | 191 kts | 79° |
| 2026-04-29 23:31 | 43.12184 | -76.01243 | 2687 ft | 195 kts | 80° |
| 2026-04-29 23:31 | 43.12528 | -75.99478 | 3064 ft | 199 kts | 71° |
| 2026-04-29 23:31 | 43.13244 | -75.97786 | 3084 ft | 213 kts | 49° |
| 2026-04-29 23:31 | 43.13972 | -75.96001 | 3144 ft | 219 kts | 73° |
| 2026-04-29 23:32 | 43.14377 | -75.94019 | 3297 ft | 214 kts | 75° |
| 2026-04-29 23:32 | 43.14739 | -75.92061 | 3448 ft | 211 kts | 76° |
| 2026-04-29 23:32 | 43.15083 | -75.90114 | 3603 ft | 210 kts | 76° |
| 2026-04-29 23:32 | 43.15416 | -75.88198 | 3750 ft | 209 kts | 76° |
| 2026-04-29 23:33 | 43.15507 | -75.86233 | 3897 ft | 208 kts | 99° |
| 2026-04-29 23:33 | 43.15236 | -75.84284 | 4053 ft | 209 kts | 102° |
| 2026-04-29 23:33 | 43.14863 | -75.82369 | 4199 ft | 208 kts | 116° |
| 2026-04-29 23:33 | 43.14039 | -75.80746 | 4350 ft | 208 kts | 124° |
| 2026-04-29 23:34 | 43.13231 | -75.79107 | 4501 ft | 208 kts | 118° |
| 2026-04-29 23:34 | 43.12449 | -75.77477 | 4772 ft | 202 kts | 129° |
| 2026-04-29 23:34 | 43.11659 | -75.75909 | 5071 ft | 199 kts | 120° |
| 2026-04-29 23:34 | 43.11028 | -75.74234 | 5371 ft | 197 kts | 115° |
| 2026-04-29 23:35 | 43.10512 | -75.72502 | 5665 ft | 196 kts | 110° |
| 2026-04-29 23:35 | 43.10080 | -75.70731 | 5970 ft | 196 kts | 107° |
| 2026-04-29 23:35 | 43.09693 | -75.68946 | 6271 ft | 196 kts | 106° |
| 2026-04-29 23:35 | 43.09334 | -75.67148 | 6571 ft | 196 kts | 104° |
| 2026-04-29 23:36 | 43.09049 | -75.65320 | 6875 ft | 197 kts | 101° |
| 2026-04-29 23:36 | 43.08817 | -75.63474 | 7176 ft | 197 kts | 99° |
| 2026-04-29 23:36 | 43.08600 | -75.61620 | 7476 ft | 198 kts | 99° |
| 2026-04-29 23:36 | 43.08371 | -75.59762 | 7776 ft | 198 kts | 100° |
| 2026-04-29 23:37 | 43.08122 | -75.57900 | 8080 ft | 199 kts | 101° |
| 2026-04-29 23:37 | 43.07865 | -75.56037 | 8380 ft | 200 kts | 101° |
| 2026-04-29 23:37 | 43.07616 | -75.54167 | 8676 ft | 201 kts | 100° |
| 2026-04-29 23:37 | 43.07372 | -75.52258 | 8853 ft | 208 kts | 100° |
| 2026-04-29 23:38 | 43.07121 | -75.50271 | 8932 ft | 216 kts | 100° |
| 2026-04-29 23:38 | 43.06855 | -75.48211 | 8971 ft | 223 kts | 100° |
| 2026-04-29 23:38 | 43.06574 | -75.46096 | 8986 ft | 228 kts | 100° |
| 2026-04-29 23:38 | 43.06287 | -75.43944 | 8989 ft | 232 kts | 100° |
| 2026-04-29 23:39 | 43.06006 | -75.41794 | 9024 ft | 233 kts | 100° |
| 2026-04-29 23:39 | 43.05723 | -75.39619 | 9068 ft | 233 kts | 100° |
| 2026-04-29 23:39 | 43.05439 | -75.37449 | 9166 ft | 231 kts | 100° |
| 2026-04-29 23:39 | 43.05152 | -75.35285 | 9193 ft | 233 kts | 100° |
| 2026-04-29 23:40 | 43.04862 | -75.33102 | 9193 ft | 233 kts | 100° |
| 2026-04-29 23:40 | 43.04578 | -75.30952 | 9191 ft | 226 kts | 100° |
| 2026-04-29 23:40 | 43.04301 | -75.28858 | 9189 ft | 221 kts | 100° |
| 2026-04-29 23:40 | 43.04030 | -75.26807 | 9186 ft | 218 kts | 100° |
| 2026-04-29 23:41 | 43.03762 | -75.24783 | 9185 ft | 215 kts | 100° |
| 2026-04-29 23:41 | 43.03495 | -75.22778 | 9189 ft | 214 kts | 100° |
| 2026-04-29 23:41 | 43.03228 | -75.20780 | 9190 ft | 213 kts | 100° |
| 2026-04-29 23:41 | 43.02958 | -75.18786 | 9189 ft | 213 kts | 101° |
| 2026-04-29 23:42 | 43.02678 | -75.16803 | 9189 ft | 212 kts | 100° |
| 2026-04-29 23:42 | 43.02432 | -75.14814 | 9190 ft | 212 kts | 99° |
| 2026-04-29 23:42 | 43.02209 | -75.12825 | 9190 ft | 212 kts | 98° |
| 2026-04-29 23:42 | 43.01986 | -75.10838 | 9190 ft | 212 kts | 99° |
| 2026-04-29 23:43 | 43.01749 | -75.08854 | 9191 ft | 212 kts | 99° |
| 2026-04-29 23:43 | 43.01503 | -75.06893 | 9191 ft | 212 kts | 100° |
| 2026-04-29 23:43 | 43.01254 | -75.04912 | 9192 ft | 212 kts | 99° |
| 2026-04-29 23:43 | 43.01014 | -75.02928 | 9191 ft | 212 kts | 99° |
| 2026-04-29 23:44 | 43.00780 | -75.00945 | 9191 ft | 212 kts | 99° |
| 2026-04-29 23:44 | 43.00543 | -74.98952 | 9191 ft | 212 kts | 99° |
| 2026-04-29 23:44 | 43.00302 | -74.96972 | 9191 ft | 212 kts | 99° |
| 2026-04-29 23:44 | 43.00057 | -74.94987 | 9191 ft | 212 kts | 99° |
| 2026-04-29 23:45 | 42.99812 | -74.93003 | 9191 ft | 212 kts | 99° |
| 2026-04-29 23:45 | 42.99652 | -74.91691 | 9191 ft | 212 kts | 99° |
| 2026-04-29 23:45 | 42.99412 | -74.89708 | 9190 ft | 211 kts | 99° |
| 2026-04-29 23:45 | 42.99171 | -74.87725 | 9190 ft | 211 kts | 99° |
| 2026-04-29 23:46 | 42.98928 | -74.85741 | 9191 ft | 211 kts | 99° |
| 2026-04-29 23:46 | 42.98684 | -74.83757 | 9191 ft | 212 kts | 99° |
| 2026-04-29 23:46 | 42.98438 | -74.81771 | 9192 ft | 212 kts | 99° |
| 2026-04-29 23:46 | 42.98195 | -74.79790 | 9192 ft | 212 kts | 99° |
| 2026-04-29 23:47 | 42.97954 | -74.77833 | 9193 ft | 212 kts | 99° |
| 2026-04-29 23:47 | 42.97709 | -74.75848 | 9192 ft | 212 kts | 99° |
| 2026-04-29 23:47 | 42.97464 | -74.73866 | 9191 ft | 212 kts | 99° |
| 2026-04-29 23:47 | 42.97218 | -74.71883 | 9190 ft | 212 kts | 99° |
| 2026-04-29 23:48 | 42.96973 | -74.69903 | 9193 ft | 212 kts | 99° |
| 2026-04-29 23:48 | 42.96726 | -74.67918 | 9192 ft | 212 kts | 99° |
| 2026-04-29 23:48 | 42.96480 | -74.65937 | 9192 ft | 212 kts | 99° |
| 2026-04-29 23:48 | 42.96233 | -74.63952 | 9192 ft | 212 kts | 99° |
| 2026-04-29 23:49 | 42.95985 | -74.61970 | 9193 ft | 212 kts | 100° |
| 2026-04-29 23:49 | 42.95738 | -74.59986 | 9193 ft | 212 kts | 100° |
| 2026-04-29 23:49 | 42.95493 | -74.58027 | 9193 ft | 212 kts | 99° |
| 2026-04-29 23:49 | 42.95244 | -74.56043 | 9194 ft | 212 kts | 100° |
| 2026-04-29 23:50 | 42.94995 | -74.54059 | 9193 ft | 212 kts | 100° |
| 2026-04-29 23:50 | 42.94745 | -74.52068 | 9191 ft | 212 kts | 100° |
| 2026-04-29 23:50 | 42.94246 | -74.48103 | 9193 ft | 212 kts | 100° |
| 2026-04-29 23:51 | 42.93996 | -74.46122 | 9192 ft | 212 kts | 100° |
| 2026-04-29 23:51 | 42.93749 | -74.44164 | 9191 ft | 212 kts | 100° |
| 2026-04-29 23:51 | 42.93498 | -74.42184 | 9192 ft | 212 kts | 100° |
| 2026-04-29 23:51 | 42.93247 | -74.40206 | 9192 ft | 212 kts | 100° |
| 2026-04-29 23:52 | 42.92995 | -74.38221 | 9192 ft | 212 kts | 100° |
| 2026-04-29 23:52 | 42.92744 | -74.36244 | 9191 ft | 212 kts | 100° |
| 2026-04-29 23:52 | 42.92492 | -74.34265 | 9191 ft | 212 kts | 100° |
| 2026-04-29 23:52 | 42.92240 | -74.32284 | 9190 ft | 212 kts | 100° |
| 2026-04-29 23:53 | 42.91986 | -74.30304 | 9190 ft | 212 kts | 100° |
| 2026-04-29 23:53 | 42.91733 | -74.28324 | 9191 ft | 212 kts | 100° |
| 2026-04-29 23:53 | 42.91480 | -74.26348 | 9192 ft | 212 kts | 100° |
| 2026-04-29 23:53 | 42.91227 | -74.24368 | 9193 ft | 212 kts | 100° |
| 2026-04-29 23:54 | 42.90972 | -74.22388 | 9192 ft | 212 kts | 100° |
| 2026-04-29 23:54 | 42.90718 | -74.20408 | 9192 ft | 212 kts | 100° |
| 2026-04-29 23:54 | 42.90463 | -74.18429 | 9192 ft | 212 kts | 100° |
| 2026-04-29 23:54 | 42.90207 | -74.16444 | 9192 ft | 212 kts | 100° |
| 2026-04-29 23:55 | 42.89952 | -74.14467 | 9192 ft | 212 kts | 100° |
| 2026-04-29 23:55 | 42.89696 | -74.12490 | 9191 ft | 212 kts | 100° |
| 2026-04-29 23:55 | 42.89439 | -74.10508 | 9191 ft | 212 kts | 100° |
| 2026-04-29 23:55 | 42.89183 | -74.08531 | 9191 ft | 212 kts | 100° |
| 2026-04-29 23:56 | 42.88927 | -74.06555 | 9191 ft | 212 kts | 100° |
| 2026-04-29 23:56 | 42.88677 | -74.04600 | 9192 ft | 212 kts | 100° |
| 2026-04-29 23:56 | 42.88420 | -74.02616 | 9193 ft | 212 kts | 100° |
| 2026-04-29 23:56 | 42.88154 | -74.00640 | 9192 ft | 212 kts | 101° |
| 2026-04-29 23:57 | 42.87891 | -73.98663 | 9192 ft | 212 kts | 100° |
| 2026-04-29 23:57 | 42.87634 | -73.96685 | 9192 ft | 212 kts | 100° |
| 2026-04-29 23:57 | 42.87381 | -73.94709 | 9192 ft | 212 kts | 100° |
| 2026-04-29 23:57 | 42.87126 | -73.92733 | 9191 ft | 212 kts | 100° |
| 2026-04-29 23:58 | 42.86865 | -73.90756 | 9191 ft | 212 kts | 100° |
| 2026-04-29 23:58 | 42.86602 | -73.88781 | 9192 ft | 212 kts | 100° |
| 2026-04-29 23:58 | 42.86339 | -73.86805 | 9191 ft | 212 kts | 100° |
| 2026-04-29 23:58 | 42.86080 | -73.84831 | 9192 ft | 212 kts | 100° |
| 2026-04-29 23:59 | 42.85825 | -73.82876 | 9191 ft | 212 kts | 100° |
| 2026-04-29 23:59 | 42.85564 | -73.80900 | 9191 ft | 212 kts | 100° |
| 2026-04-29 23:59 | 42.85301 | -73.78921 | 9191 ft | 212 kts | 100° |
| 2026-04-29 23:59 | 42.85038 | -73.76948 | 9191 ft | 212 kts | 100° |
| 2026-04-30 00:00 | 42.84775 | -73.74967 | 9191 ft | 212 kts | 100° |
| 2026-04-30 00:00 | 42.84512 | -73.72991 | 9192 ft | 212 kts | 100° |
| 2026-04-30 00:00 | 42.84250 | -73.71015 | 9191 ft | 212 kts | 100° |
| 2026-04-30 00:00 | 42.83988 | -73.69041 | 9192 ft | 212 kts | 100° |
| 2026-04-30 00:01 | 42.83723 | -73.67063 | 9192 ft | 212 kts | 100° |
| 2026-04-30 00:01 | 42.83458 | -73.65089 | 9191 ft | 212 kts | 100° |
| 2026-04-30 00:01 | 42.83193 | -73.63114 | 9192 ft | 212 kts | 100° |
| 2026-04-30 00:01 | 42.82929 | -73.61142 | 9193 ft | 212 kts | 100° |
| 2026-04-30 00:02 | 42.82665 | -73.59166 | 9193 ft | 212 kts | 100° |
| 2026-04-30 00:02 | 42.82400 | -73.57193 | 9193 ft | 212 kts | 101° |
| 2026-04-30 00:02 | 42.82133 | -73.55216 | 9192 ft | 212 kts | 101° |
| 2026-04-30 00:02 | 42.81867 | -73.53241 | 9191 ft | 212 kts | 101° |
| 2026-04-30 00:03 | 42.81604 | -73.51291 | 9191 ft | 212 kts | 101° |
| 2026-04-30 00:03 | 42.81337 | -73.49320 | 9191 ft | 212 kts | 101° |
| 2026-04-30 00:03 | 42.81071 | -73.47346 | 9191 ft | 212 kts | 101° |
| 2026-04-30 00:03 | 42.80804 | -73.45375 | 9191 ft | 212 kts | 101° |
| 2026-04-30 00:04 | 42.80535 | -73.43401 | 9191 ft | 212 kts | 101° |
| 2026-04-30 00:04 | 42.80267 | -73.41430 | 9192 ft | 212 kts | 101° |
| 2026-04-30 00:04 | 42.79999 | -73.39457 | 9191 ft | 212 kts | 101° |
| 2026-04-30 00:04 | 42.79730 | -73.37484 | 9191 ft | 212 kts | 101° |
| 2026-04-30 00:05 | 42.79461 | -73.35514 | 9191 ft | 212 kts | 101° |
| 2026-04-30 00:05 | 42.79193 | -73.33547 | 9191 ft | 212 kts | 101° |
| 2026-04-30 00:05 | 42.78924 | -73.31580 | 9193 ft | 212 kts | 101° |
| 2026-04-30 00:05 | 42.78653 | -73.29603 | 9197 ft | 212 kts | 101° |
| 2026-04-30 00:06 | 42.78383 | -73.27632 | 9193 ft | 212 kts | 101° |
| 2026-04-30 00:06 | 42.78111 | -73.25663 | 9191 ft | 212 kts | 101° |
| 2026-04-30 00:06 | 42.77844 | -73.23718 | 9193 ft | 212 kts | 101° |
| 2026-04-30 00:06 | 42.77570 | -73.21724 | 9193 ft | 212 kts | 101° |
| 2026-04-30 00:07 | 42.77302 | -73.19778 | 9193 ft | 212 kts | 101° |
| 2026-04-30 00:07 | 42.77026 | -73.17785 | 9196 ft | 217 kts | 101° |
| 2026-04-30 00:07 | 42.76744 | -73.15744 | 9197 ft | 221 kts | 101° |
| 2026-04-30 00:07 | 42.76458 | -73.13673 | 9199 ft | 224 kts | 101° |
| 2026-04-30 00:08 | 42.76167 | -73.11583 | 9197 ft | 226 kts | 101° |
| 2026-04-30 00:08 | 42.75874 | -73.09475 | 9195 ft | 227 kts | 101° |
| 2026-04-30 00:08 | 42.75581 | -73.07368 | 9193 ft | 227 kts | 101° |
| 2026-04-30 00:08 | 42.75287 | -73.05254 | 9194 ft | 228 kts | 101° |
| 2026-04-30 00:09 | 42.74992 | -73.03134 | 9200 ft | 228 kts | 101° |
| 2026-04-30 00:09 | 42.74695 | -73.01009 | 9196 ft | 228 kts | 101° |
| 2026-04-30 00:09 | 42.74398 | -72.98886 | 9194 ft | 228 kts | 101° |
| 2026-04-30 00:09 | 42.74101 | -72.96765 | 9193 ft | 228 kts | 101° |
| 2026-04-30 00:10 | 42.73804 | -72.94643 | 9193 ft | 228 kts | 101° |
| 2026-04-30 00:10 | 42.73505 | -72.92520 | 9192 ft | 228 kts | 101° |
| 2026-04-30 00:10 | 42.73207 | -72.90398 | 9195 ft | 228 kts | 101° |
| 2026-04-30 00:10 | 42.72911 | -72.88303 | 9194 ft | 228 kts | 101° |
| 2026-04-30 00:11 | 42.72613 | -72.86184 | 9192 ft | 228 kts | 101° |
| 2026-04-30 00:11 | 42.72313 | -72.84062 | 9192 ft | 228 kts | 101° |
| 2026-04-30 00:11 | 42.72013 | -72.81939 | 9191 ft | 228 kts | 101° |
| 2026-04-30 00:11 | 42.71713 | -72.79822 | 9191 ft | 228 kts | 101° |
| 2026-04-30 00:12 | 42.71413 | -72.77705 | 9192 ft | 228 kts | 101° |
| 2026-04-30 00:12 | 42.71112 | -72.75584 | 9192 ft | 228 kts | 101° |
| 2026-04-30 00:12 | 42.70810 | -72.73467 | 9192 ft | 228 kts | 101° |
| 2026-04-30 00:12 | 42.70509 | -72.71350 | 9192 ft | 228 kts | 101° |
| 2026-04-30 00:13 | 42.70207 | -72.69233 | 9192 ft | 228 kts | 101° |
| 2026-04-30 00:13 | 42.69904 | -72.67110 | 9192 ft | 228 kts | 101° |
| 2026-04-30 00:13 | 42.69601 | -72.64992 | 9193 ft | 228 kts | 101° |
| 2026-04-30 00:13 | 42.69297 | -72.62871 | 9192 ft | 228 kts | 101° |
| 2026-04-30 00:14 | 42.68994 | -72.60754 | 9193 ft | 228 kts | 101° |
| 2026-04-30 00:14 | 42.68690 | -72.58639 | 9192 ft | 228 kts | 101° |
| 2026-04-30 00:14 | 42.68385 | -72.56519 | 9192 ft | 228 kts | 101° |
| 2026-04-30 00:14 | 42.68085 | -72.54432 | 9192 ft | 228 kts | 101° |
| 2026-04-30 00:15 | 42.67780 | -72.52317 | 9192 ft | 228 kts | 101° |
| 2026-04-30 00:15 | 42.67474 | -72.50198 | 9192 ft | 228 kts | 101° |
| 2026-04-30 00:15 | 42.67166 | -72.48079 | 9191 ft | 228 kts | 101° |
| 2026-04-30 00:15 | 42.66855 | -72.45966 | 9191 ft | 228 kts | 101° |
| 2026-04-30 00:16 | 42.66552 | -72.43846 | 9192 ft | 228 kts | 101° |
| 2026-04-30 00:16 | 42.66251 | -72.41725 | 9192 ft | 228 kts | 101° |
| 2026-04-30 00:16 | 42.65945 | -72.39611 | 9191 ft | 228 kts | 101° |
| 2026-04-30 00:16 | 42.65633 | -72.37499 | 9191 ft | 228 kts | 101° |
| 2026-04-30 00:17 | 42.65320 | -72.35383 | 9191 ft | 228 kts | 101° |
| 2026-04-30 00:17 | 42.65011 | -72.33269 | 9191 ft | 228 kts | 101° |
| 2026-04-30 00:17 | 42.64704 | -72.31151 | 9192 ft | 228 kts | 101° |
| 2026-04-30 00:17 | 42.64397 | -72.29038 | 9191 ft | 228 kts | 101° |
| 2026-04-30 00:18 | 42.64087 | -72.26926 | 9191 ft | 228 kts | 101° |
| 2026-04-30 00:18 | 42.63775 | -72.24810 | 9191 ft | 228 kts | 101° |
| 2026-04-30 00:18 | 42.63463 | -72.22697 | 9191 ft | 228 kts | 101° |
| 2026-04-30 00:18 | 42.63153 | -72.20586 | 9191 ft | 228 kts | 101° |
| 2026-04-30 00:19 | 42.62842 | -72.18470 | 9192 ft | 228 kts | 101° |
| 2026-04-30 00:19 | 42.62530 | -72.16354 | 9191 ft | 228 kts | 101° |
| 2026-04-30 00:19 | 42.62221 | -72.14267 | 9192 ft | 228 kts | 101° |
| 2026-04-30 00:19 | 42.61908 | -72.12151 | 9192 ft | 228 kts | 101° |
| 2026-04-30 00:20 | 42.61595 | -72.10040 | 9192 ft | 228 kts | 101° |
| 2026-04-30 00:20 | 42.61281 | -72.07925 | 9191 ft | 228 kts | 101° |
| 2026-04-30 00:20 | 42.60968 | -72.05813 | 9192 ft | 228 kts | 101° |
| 2026-04-30 00:20 | 42.60654 | -72.03703 | 9192 ft | 228 kts | 102° |
| 2026-04-30 00:21 | 42.60339 | -72.01590 | 9191 ft | 228 kts | 102° |
| 2026-04-30 00:21 | 42.60023 | -71.99472 | 9192 ft | 228 kts | 101° |
| 2026-04-30 00:21 | 42.59708 | -71.97364 | 9192 ft | 228 kts | 102° |
| 2026-04-30 00:21 | 42.59392 | -71.95250 | 9192 ft | 228 kts | 102° |
| 2026-04-30 00:22 | 42.59076 | -71.93141 | 9191 ft | 228 kts | 102° |
| 2026-04-30 00:22 | 42.58758 | -71.91017 | 9111 ft | 231 kts | 102° |
| 2026-04-30 00:22 | 42.58435 | -71.88871 | 9054 ft | 232 kts | 102° |
| 2026-04-30 00:22 | 42.58113 | -71.86732 | 9058 ft | 230 kts | 102° |
| 2026-04-30 00:23 | 42.57794 | -71.84611 | 9058 ft | 229 kts | 102° |
| 2026-04-30 00:23 | 42.57475 | -71.82490 | 9058 ft | 229 kts | 102° |
| 2026-04-30 00:23 | 42.57156 | -71.80380 | 9058 ft | 228 kts | 102° |
| 2026-04-30 00:23 | 42.56837 | -71.78272 | 8947 ft | 225 kts | 102° |
| 2026-04-30 00:24 | 42.56564 | -71.76220 | 8792 ft | 218 kts | 99° |
| 2026-04-30 00:24 | 42.56347 | -71.74227 | 8642 ft | 214 kts | 98° |
| 2026-04-30 00:24 | 42.56147 | -71.72239 | 8492 ft | 211 kts | 97° |
| 2026-04-30 00:24 | 42.55957 | -71.70272 | 8344 ft | 209 kts | 97° |
| 2026-04-30 00:25 | 42.55772 | -71.68321 | 8187 ft | 208 kts | 97° |
| 2026-04-30 00:25 | 42.55589 | -71.66377 | 8043 ft | 207 kts | 97° |
| 2026-04-30 00:25 | 42.55408 | -71.64435 | 7892 ft | 207 kts | 97° |
| 2026-04-30 00:25 | 42.55227 | -71.62501 | 7742 ft | 206 kts | 97° |
| 2026-04-30 00:26 | 42.55048 | -71.60580 | 7593 ft | 205 kts | 97° |
| 2026-04-30 00:26 | 42.54868 | -71.58654 | 7442 ft | 205 kts | 97° |
| 2026-04-30 00:26 | 42.54690 | -71.56739 | 7292 ft | 205 kts | 97° |
| 2026-04-30 00:26 | 42.54512 | -71.54817 | 7142 ft | 205 kts | 97° |
| 2026-04-30 00:27 | 42.54335 | -71.52895 | 6992 ft | 205 kts | 97° |
| 2026-04-30 00:27 | 42.54161 | -71.50979 | 6843 ft | 205 kts | 97° |
| 2026-04-30 00:27 | 42.53906 | -71.49077 | 6689 ft | 204 kts | 113° |
| 2026-04-30 00:27 | 42.53132 | -71.47508 | 6544 ft | 203 kts | 129° |
| 2026-04-30 00:28 | 42.52215 | -71.46048 | 6394 ft | 203 kts | 132° |
| 2026-04-30 00:28 | 42.51270 | -71.44627 | 6244 ft | 203 kts | 133° |
| 2026-04-30 00:28 | 42.50314 | -71.43224 | 6093 ft | 203 kts | 133° |
| 2026-04-30 00:28 | 42.49349 | -71.41821 | 5942 ft | 202 kts | 133° |
| 2026-04-30 00:29 | 42.48386 | -71.40428 | 5792 ft | 202 kts | 133° |
| 2026-04-30 00:29 | 42.47425 | -71.39042 | 5641 ft | 202 kts | 134° |
| 2026-04-30 00:29 | 42.46465 | -71.37658 | 5491 ft | 201 kts | 134° |
| 2026-04-30 00:29 | 42.45507 | -71.36276 | 5340 ft | 201 kts | 134° |
| 2026-04-30 00:30 | 42.44549 | -71.34897 | 5192 ft | 201 kts | 134° |
| 2026-04-30 00:30 | 42.43596 | -71.33524 | 5170 ft | 200 kts | 134° |
| 2026-04-30 00:30 | 42.42660 | -71.32160 | 5024 ft | 196 kts | 134° |
| 2026-04-30 00:30 | 42.41740 | -71.30822 | 4878 ft | 193 kts | 134° |
| 2026-04-30 00:31 | 42.40829 | -71.29499 | 4730 ft | 192 kts | 133° |
| 2026-04-30 00:31 | 42.39922 | -71.28184 | 4569 ft | 191 kts | 133° |
| 2026-04-30 00:31 | 42.39328 | -71.27325 | 4468 ft | 190 kts | 133° |
| 2026-04-30 00:31 | 42.38423 | -71.26017 | 4310 ft | 189 kts | 133° |
| 2026-04-30 00:32 | 42.37522 | -71.24720 | 4165 ft | 189 kts | 134° |
| 2026-04-30 00:32 | 42.36625 | -71.23433 | 4067 ft | 186 kts | 134° |
| 2026-04-30 00:32 | 42.35752 | -71.22178 | 4023 ft | 181 kts | 134° |
| 2026-04-30 00:32 | 42.34899 | -71.20949 | 4008 ft | 177 kts | 134° |
| 2026-04-30 00:33 | 42.34065 | -71.19743 | 4006 ft | 174 kts | 133° |
| 2026-04-30 00:33 | 42.33235 | -71.18552 | 3999 ft | 172 kts | 133° |
| 2026-04-30 00:33 | 42.32416 | -71.17380 | 4001 ft | 172 kts | 133° |
| 2026-04-30 00:33 | 42.31545 | -71.16118 | 4013 ft | 195 kts | 133° |
| 2026-04-30 00:34 | 42.30589 | -71.14742 | 4010 ft | 204 kts | 133° |
| 2026-04-30 00:34 | 42.29606 | -71.13334 | 4005 ft | 208 kts | 133° |
| 2026-04-30 00:34 | 42.28619 | -71.11919 | 4002 ft | 211 kts | 134° |
| 2026-04-30 00:34 | 42.27605 | -71.10480 | 3998 ft | 212 kts | 134° |
| 2026-04-30 00:35 | 42.26588 | -71.09037 | 3995 ft | 212 kts | 134° |
| 2026-04-30 00:35 | 42.25387 | -71.07930 | 3995 ft | 213 kts | 163° |
| 2026-04-30 00:35 | 42.23928 | -71.08002 | 4000 ft | 214 kts | 199° |
| 2026-04-30 00:35 | 42.22758 | -71.09140 | 4000 ft | 204 kts | 224° |
| 2026-04-30 00:36 | 42.22105 | -71.10782 | 3998 ft | 197 kts | 250° |
| 2026-04-30 00:36 | 42.21716 | -71.12542 | 3995 ft | 195 kts | 253° |
| 2026-04-30 00:36 | 42.21394 | -71.14307 | 3996 ft | 193 kts | 254° |
| 2026-04-30 00:36 | 42.21210 | -71.16093 | 3999 ft | 194 kts | 276° |
| 2026-04-30 00:37 | 42.21800 | -71.17702 | 3994 ft | 196 kts | 315° |
| 2026-04-30 00:37 | 42.23031 | -71.18502 | 3816 ft | 201 kts | 355° |
| 2026-04-30 00:37 | 42.24378 | -71.18125 | 3644 ft | 201 kts | 33° |
| 2026-04-30 00:37 | 42.25267 | -71.16727 | 3479 ft | 198 kts | 71° |
| 2026-04-30 00:38 | 42.25315 | -71.14919 | 3302 ft | 195 kts | 105° |
| 2026-04-30 00:38 | 42.24911 | -71.13165 | 3122 ft | 196 kts | 110° |
| 2026-04-30 00:38 | 42.24444 | -71.11460 | 2940 ft | 196 kts | 112° |
| 2026-04-30 00:38 | 42.24174 | -71.09670 | 2756 ft | 198 kts | 85° |
| 2026-04-30 00:39 | 42.24682 | -71.07945 | 2577 ft | 200 kts | 63° |
| 2026-04-30 00:39 | 42.25401 | -71.06325 | 2342 ft | 201 kts | 60° |
| 2026-04-30 00:39 | 42.26148 | -71.04731 | 2158 ft | 199 kts | 59° |
| 2026-04-30 00:39 | 42.26895 | -71.03182 | 2076 ft | 194 kts | 59° |
| 2026-04-30 00:40 | 42.27631 | -71.01679 | 2034 ft | 189 kts | 58° |
| 2026-04-30 00:40 | 42.28348 | -71.00212 | 2015 ft | 185 kts | 59° |